ADDS METAR Data INFO
IDs: Format: Raw Decoded Include TAF

Data at: 1510 UTC 21 Feb 2018

METAR for:KVRB (Vero Beach Muni, FL, US)
Text:KVRB 201453Z 12013G21KT 10SM CLR 27/21 A3036 RMK AO2 SLP280 T02670206 53017
Temperature: 26.7°C ( 80°F)
Dewpoint: 20.6°C ( 69°F) [RH = 69%]
Pressure (altimeter):30.36 inches Hg (1028.2 mb) [Sea level pressure: 1028.0 mb]
Winds:from the ESE (120 degrees) at 15 MPH (13 knots; 6.7 m/s) gusting to 24 MPH (21 knots; 10.8 m/s)
Visibility:10 or more sm (16+ km)
Ceiling:at least 12,000 feet AGL
Clouds:sky clear below 12,000 feet AGL